Time;durP1;ratioP1;P1;durP2;ratioP2;P2;SDS_P1;SDS_P2;PMS_P1;PMS_P2;Temp;Humidity;BMP_temperature;BMP_pressure;BME280_temperature;BME280_humidity;BME280_pressure;Samples;Min_cycle;Max_cycle;Signal;HPM_P1;HPM_P2
2022/11/09 00:01:32;;;;;;;3.53;2.10;;;12.40;99.90;;;;;;5012435;28;20172;-69
2022/11/09 00:04:00;;;;;;;2.90;2.27;;;12.40;99.90;;;;;;5011007;28;20214;-69
2022/11/09 00:06:26;;;;;;;2.63;2.43;;;12.30;99.90;;;;;;5011967;28;20283;-68
2022/11/09 00:08:52;;;;;;;4.03;2.53;;;12.30;99.90;;;;;;5011594;28;20489;-68
2022/11/09 00:11:18;;;;;;;3.87;2.07;;;12.30;99.90;;;;;;5020173;28;20434;-68
2022/11/09 00:13:45;;;;;;;2.63;2.07;;;12.30;99.90;;;;;;5012523;28;20294;-69
2022/11/09 00:16:13;;;;;;;1.83;1.63;;;12.20;99.90;;;;;;5009634;28;20458;-69
2022/11/09 00:18:44;;;;;;;2.50;2.10;;;12.20;99.90;;;;;;5011202;28;20510;-69
2022/11/09 00:21:13;;;;;;;2.10;1.90;;;12.30;99.90;;;;;;5011538;28;20430;-69
2022/11/09 00:23:38;;;;;;;3.00;2.10;;;12.30;99.90;;;;;;5012109;28;20442;-69
2022/11/09 00:26:07;;;;;;;3.70;2.20;;;12.20;99.90;;;;;;5011720;28;20466;-69
2022/11/09 00:28:33;;;;;;;3.63;2.33;;;12.20;99.90;;;;;;5013936;28;20188;-68
2022/11/09 00:31:07;;;;;;;3.43;3.13;;;12.20;99.90;;;;;;5024310;28;20539;-69
2022/11/09 00:33:33;;;;;;;2.90;2.13;;;12.20;99.90;;;;;;5005117;28;20541;-69
2022/11/09 00:36:06;;;;;;;2.63;2.43;;;12.30;99.90;;;;;;5008972;28;20466;-70
2022/11/09 00:38:33;;;;;;;4.07;2.13;;;12.30;99.90;;;;;;5003862;28;20447;-69
2022/11/09 00:41:03;;;;;;;4.47;2.70;;;12.30;99.90;;;;;;5011015;28;20459;-69
2022/11/09 00:43:29;;;;;;;2.97;2.30;;;12.30;99.90;;;;;;5010645;28;20420;-69
2022/11/09 00:45:54;;;;;;;2.53;2.33;;;12.40;99.90;;;;;;5010487;28;20500;-69
2022/11/09 00:48:20;;;;;;;3.27;2.00;;;12.40;99.90;;;;;;5011291;28;20188;-69
2022/11/09 00:50:53;;;;;;;2.47;2.20;;;12.30;99.90;;;;;;5010447;28;20168;-69
2022/11/09 00:53:20;;;;;;;6.10;2.60;;;12.30;99.90;;;;;;5008434;28;20180;-69
2022/11/09 00:56:03;;;;;;;2.00;1.70;;;12.30;99.90;;;;;;5024851;28;20445;-70
2022/11/09 00:58:30;;;;;;;3.43;2.53;;;12.30;99.90;;;;;;5018225;28;20425;-69
2022/11/09 01:00:57;;;;;;;2.73;2.00;;;12.30;99.90;;;;;;4980314;28;20427;-69
2022/11/09 01:03:23;;;;;;;4.13;2.00;;;12.30;99.90;;;;;;5000614;28;20420;-69
2022/11/09 01:05:49;;;;;;;2.27;2.07;;;12.30;99.90;;;;;;5009680;28;20505;-69
2022/11/09 01:08:15;;;;;;;2.30;1.90;;;12.30;99.90;;;;;;5010766;28;20447;-68
2022/11/09 01:10:42;;;;;;;2.57;1.73;;;12.30;99.90;;;;;;5011189;28;20180;-68
2022/11/09 01:13:09;;;;;;;3.90;2.10;;;12.30;99.90;;;;;;5012042;28;20418;-70
2022/11/09 01:15:42;;;;;;;2.67;1.90;;;12.30;99.90;;;;;;5012387;28;20423;-70
2022/11/09 01:18:08;;;;;;;2.60;2.00;;;12.30;99.90;;;;;;5017745;28;20441;-70
2022/11/09 01:20:41;;;;;;;4.63;2.30;;;12.30;99.90;;;;;;5029243;28;20499;-69
2022/11/09 01:23:08;;;;;;;1.93;1.73;;;12.30;99.90;;;;;;5012789;28;20450;-68
2022/11/09 01:25:34;;;;;;;2.20;2.00;;;12.20;99.90;;;;;;5013416;28;20462;-69
2022/11/09 01:28:00;;;;;;;2.43;1.97;;;12.20;99.90;;;;;;5013952;28;20411;-70
2022/11/09 01:30:25;;;;;;;2.10;1.93;;;12.20;99.90;;;;;;5014947;28;20987;-68
2022/11/09 01:32:51;;;;;;;1.97;1.80;;;12.10;99.90;;;;;;5015236;28;20246;-71
2022/11/09 01:35:16;;;;;;;1.77;1.63;;;12.10;99.90;;;;;;4994611;28;20211;-69
2022/11/09 01:37:42;;;;;;;3.60;2.20;;;12.10;99.90;;;;;;4993723;28;20567;-69
2022/11/09 01:40:08;;;;;;;2.93;2.73;;;12.00;99.90;;;;;;5005097;28;20183;-69
2022/11/09 01:42:37;;;;;;;2.30;2.10;;;11.90;99.90;;;;;;4997199;28;20585;-69
2022/11/09 01:45:18;;;;;;;2.10;1.90;;;11.90;99.90;;;;;;5013997;28;20478;-69
2022/11/09 01:47:46;;;;;;;3.83;2.00;;;11.90;99.90;;;;;;5013820;28;20944;-69
2022/11/09 01:50:14;;;;;;;4.20;2.00;;;11.90;99.90;;;;;;5012575;28;20441;-69
2022/11/09 01:52:43;;;;;;;3.23;2.13;;;11.90;99.90;;;;;;5029782;28;20426;-69
2022/11/09 01:55:14;;;;;;;2.90;2.53;;;11.90;99.90;;;;;;5032097;28;20511;-68
2022/11/09 01:57:58;;;;;;;3.77;2.00;;;11.80;99.90;;;;;;5013908;28;20427;-69
2022/11/09 02:00:24;;;;;;;2.90;2.47;;;11.80;99.90;;;;;;5013122;28;20766;-69
2022/11/09 02:02:54;;;;;;;2.47;2.27;;;11.80;99.90;;;;;;5013934;28;20418;-69
2022/11/09 02:05:24;;;;;;;2.77;2.13;;;11.70;99.90;;;;;;5014536;28;20616;-69
2022/11/09 02:07:50;;;;;;;4.00;1.93;;;11.70;99.90;;;;;;4996445;28;20431;-69
2022/11/09 02:10:25;;;;;;;2.20;2.00;;;11.60;99.90;;;;;;5020136;28;20534;-69
2022/11/09 02:12:53;;;;;;;2.93;2.07;;;11.60;99.90;;;;;;5014210;28;20419;-69
2022/11/09 02:15:19;;;;;;;4.00;1.93;;;11.60;99.90;;;;;;5021736;28;20447;-69
2022/11/09 02:17:46;;;;;;;2.67;2.27;;;11.50;99.90;;;;;;5018941;28;20430;-69
2022/11/09 02:20:14;;;;;;;2.30;1.90;;;11.50;99.90;;;;;;4995342;28;20512;-69
2022/11/09 02:22:40;;;;;;;4.73;2.13;;;11.40;99.90;;;;;;5013969;28;20403;-70
2022/11/09 02:25:07;;;;;;;2.60;2.40;;;11.40;99.90;;;;;;5013550;28;20936;-69
2022/11/09 02:27:34;;;;;;;2.20;2.00;;;11.30;99.90;;;;;;5012910;28;20485;-69
2022/11/09 02:30:01;;;;;;;2.63;2.43;;;11.30;99.90;;;;;;4995416;28;20970;-69
2022/11/09 02:32:28;;;;;;;2.57;1.87;;;11.30;99.90;;;;;;5013695;28;20450;-69
2022/11/09 02:34:54;;;;;;;3.70;2.17;;;11.20;99.90;;;;;;5001837;28;20455;-69
2022/11/09 02:37:34;;;;;;;2.50;2.03;;;11.20;99.90;;;;;;4995053;28;20477;-69
2022/11/09 02:40:06;;;;;;;2.67;2.27;;;11.20;99.90;;;;;;5013480;28;20683;-69
2022/11/09 02:42:32;;;;;;;3.30;2.47;;;11.20;99.90;;;;;;5013039;28;20945;-69
2022/11/09 02:44:58;;;;;;;2.07;1.83;;;11.20;99.90;;;;;;5013173;28;20473;-68
2022/11/09 02:47:25;;;;;;;2.13;1.80;;;11.10;99.90;;;;;;5013221;28;20918;-69
2022/11/09 02:49:50;;;;;;;2.23;1.80;;;11.20;99.90;;;;;;5013507;28;20453;-69
2022/11/09 02:52:16;;;;;;;3.67;2.27;;;11.10;99.90;;;;;;5012690;28;20466;-68
2022/11/09 02:54:42;;;;;;;1.73;1.60;;;11.20;99.90;;;;;;5029091;28;20247;-69
2022/11/09 02:57:08;;;;;;;2.97;2.10;;;11.20;99.90;;;;;;5015025;28;20505;-68
2022/11/09 02:59:34;;;;;;;3.33;2.00;;;11.10;99.90;;;;;;5013391;28;20180;-70
2022/11/09 03:01:59;;;;;;;3.70;2.47;;;11.20;99.90;;;;;;5013297;28;20570;-69
2022/11/09 03:04:25;;;;;;;2.40;2.00;;;11.20;99.90;;;;;;5011773;28;20635;-70
2022/11/09 03:06:50;;;;;;;6.10;2.13;;;11.20;99.90;;;;;;5013033;28;20196;-70
2022/11/09 03:09:16;;;;;;;2.70;2.10;;;11.20;99.90;;;;;;5012007;28;20187;-69
2022/11/09 03:11:42;;;;;;;2.10;1.90;;;11.20;99.90;;;;;;5013565;28;20176;-69
2022/11/09 03:14:08;;;;;;;4.20;2.30;;;11.20;99.90;;;;;;5028515;28;20273;-69
2022/11/09 03:16:34;;;;;;;2.50;2.13;;;11.20;99.90;;;;;;5017944;28;20414;-71
2022/11/09 03:19:00;;;;;;;4.50;2.30;;;11.30;99.90;;;;;;5022106;28;20438;-69
2022/11/09 03:21:26;;;;;;;3.10;1.70;;;11.30;99.90;;;;;;5010446;28;20901;-69
2022/11/09 03:23:53;;;;;;;2.63;1.63;;;11.30;99.90;;;;;;5017614;28;20754;-69
2022/11/09 03:26:18;;;;;;;4.10;3.80;;;11.30;99.90;;;;;;5003303;28;20454;-69
2022/11/09 03:28:44;;;;;;;2.53;1.90;;;11.40;99.90;;;;;;4993049;28;20429;-69
2022/11/09 03:31:09;;;;;;;2.07;1.87;;;11.40;99.90;;;;;;5019461;28;20168;-71
2022/11/09 03:33:35;;;;;;;2.57;1.83;;;11.50;99.90;;;;;;5000709;28;20225;-71
2022/11/09 03:36:01;;;;;;;2.30;1.80;;;11.60;99.90;;;;;;4973439;28;20173;-70
2022/11/09 03:38:26;;;;;;;3.23;1.93;;;11.60;99.90;;;;;;4992506;28;20260;-70
2022/11/09 03:40:52;;;;;;;1.67;1.57;;;11.70;99.90;;;;;;5001538;28;20436;-70
2022/11/09 03:43:17;;;;;;;3.00;2.27;;;11.70;99.90;;;;;;5008077;28;20650;-70
2022/11/09 03:45:43;;;;;;;4.50;2.50;;;11.80;99.90;;;;;;5011679;28;20199;-70
2022/11/09 03:48:08;;;;;;;1.77;1.50;;;11.80;99.90;;;;;;5012505;28;20238;-70
2022/11/09 03:50:39;;;;;;;2.30;2.10;;;11.90;99.90;;;;;;5011609;28;20236;-70
2022/11/09 03:53:06;;;;;;;2.13;1.60;;;11.90;99.90;;;;;;5011977;28;20516;-70
2022/11/09 03:55:32;;;;;;;1.80;1.70;;;11.90;99.90;;;;;;5012147;28;20953;-70
2022/11/09 03:57:57;;;;;;;2.83;2.20;;;11.90;99.90;;;;;;4995158;28;20620;-70
2022/11/09 04:00:23;;;;;;;1.80;1.70;;;11.90;99.90;;;;;;5024840;28;20183;-70
2022/11/09 04:02:49;;;;;;;2.40;1.87;;;11.90;99.90;;;;;;5012027;28;20173;-70
2022/11/09 04:05:15;;;;;;;2.60;1.97;;;11.90;99.90;;;;;;4993997;28;20215;-71
2022/11/09 04:07:49;;;;;;;4.53;2.20;;;11.90;99.90;;;;;;5012120;28;20417;-69
2022/11/09 04:10:15;;;;;;;2.33;1.80;;;11.90;99.90;;;;;;4993391;28;20417;-69
2022/11/09 04:12:41;;;;;;;6.13;2.00;;;11.90;99.90;;;;;;5011811;28;20494;-70
2022/11/09 04:15:07;;;;;;;1.60;1.50;;;12.00;99.90;;;;;;4994482;28;20542;-70
2022/11/09 04:17:32;;;;;;;2.33;2.10;;;11.90;99.90;;;;;;5016018;28;20172;-70
2022/11/09 04:19:58;;;;;;;2.50;2.07;;;11.90;99.90;;;;;;5018448;28;20403;-69
2022/11/09 04:22:23;;;;;;;1.90;1.67;;;11.90;99.90;;;;;;4992158;28;20176;-69
2022/11/09 04:24:48;;;;;;;1.50;1.40;;;11.90;99.90;;;;;;4991123;28;20526;-69
2022/11/09 04:27:14;;;;;;;2.17;1.83;;;11.90;99.90;;;;;;4991638;28;20271;-69
2022/11/09 04:29:39;;;;;;;4.10;2.33;;;11.90;99.90;;;;;;4992581;28;20169;-69
2022/11/09 04:32:05;;;;;;;1.70;1.60;;;11.90;99.90;;;;;;4992551;28;20177;-70
2022/11/09 04:34:31;;;;;;;2.70;2.00;;;11.90;99.90;;;;;;4992231;28;20397;-70
2022/11/09 04:36:56;;;;;;;2.33;2.13;;;11.90;99.90;;;;;;5001674;28;20191;-70
2022/11/09 04:39:22;;;;;;;2.80;1.90;;;11.90;99.90;;;;;;5010368;28;20192;-71
2022/11/09 04:41:47;;;;;;;3.20;2.23;;;11.90;99.90;;;;;;5009728;28;20647;-70
2022/11/09 04:44:13;;;;;;;2.40;2.20;;;11.90;99.90;;;;;;5009916;28;20199;-70
2022/11/09 04:46:38;;;;;;;6.73;2.20;;;11.90;99.90;;;;;;5009767;28;20211;-70
2022/11/09 04:49:04;;;;;;;3.27;2.23;;;11.90;99.90;;;;;;5009978;28;20192;-69
2022/11/09 04:51:29;;;;;;;1.80;1.53;;;11.90;99.90;;;;;;5011615;28;20589;-69
2022/11/09 04:53:55;;;;;;;1.80;1.70;;;11.90;99.90;;;;;;5012152;28;20211;-69
2022/11/09 04:56:21;;;;;;;1.80;1.60;;;11.90;99.90;;;;;;5011046;28;20183;-69
2022/11/09 04:58:48;;;;;;;2.60;2.20;;;11.90;99.90;;;;;;5027840;28;20242;-69
2022/11/09 05:01:13;;;;;;;2.80;2.40;;;12.00;99.90;;;;;;5017445;28;20180;-69
2022/11/09 05:03:39;;;;;;;4.37;2.30;;;11.90;99.90;;;;;;5011037;28;20435;-68
2022/11/09 05:08:50;;;;;;;1.97;1.87;;;12.00;99.90;;;;;;4995974;28;20439;-69
2022/11/09 05:11:16;;;;;;;2.03;1.90;;;12.00;99.90;;;;;;4995626;28;20906;-69
2022/11/09 05:13:42;;;;;;;2.57;1.90;;;12.00;99.90;;;;;;5005551;28;20459;-69
2022/11/09 05:16:07;;;;;;;3.33;1.73;;;12.00;99.90;;;;;;5015054;28;20191;-69
2022/11/09 05:18:33;;;;;;;2.57;1.77;;;12.10;99.90;;;;;;5015144;28;20269;-69
2022/11/09 05:21:00;;;;;;;4.03;3.27;;;12.00;99.90;;;;;;5013923;28;20203;-69
2022/11/09 05:26:10;;;;;;;2.00;1.80;;;12.00;99.90;;;;;;5014702;28;20465;-69
2022/11/09 05:28:35;;;;;;;2.97;1.67;;;12.00;99.90;;;;;;5014262;28;20412;-70
2022/11/09 05:31:01;;;;;;;2.20;2.00;;;12.00;99.90;;;;;;5013803;28;20244;-69
2022/11/09 05:33:26;;;;;;;3.07;2.00;;;12.00;99.90;;;;;;5014203;28;20176;-69
2022/11/09 05:35:55;;;;;;;3.33;2.23;;;12.00;99.90;;;;;;5015874;28;20702;-69
2022/11/09 05:38:22;;;;;;;3.00;2.30;;;12.00;99.90;;;;;;5032715;28;20176;-69
2022/11/09 05:40:49;;;;;;;3.50;2.67;;;12.00;99.90;;;;;;5034370;28;20418;-68
2022/11/09 05:43:14;;;;;;;8.27;2.63;;;12.00;99.90;;;;;;5034313;28;20760;-69
2022/11/09 05:45:41;;;;;;;3.43;2.43;;;12.00;99.90;;;;;;5001403;28;20470;-69
2022/11/09 05:48:07;;;;;;;2.40;2.20;;;12.00;99.90;;;;;;5014002;28;20355;-69
2022/11/09 05:50:32;;;;;;;3.90;2.43;;;12.00;99.90;;;;;;5015643;28;20415;-70
2022/11/09 05:52:59;;;;;;;2.60;2.17;;;12.00;99.90;;;;;;5020482;28;20179;-70
2022/11/09 05:55:25;;;;;;;2.57;2.30;;;12.00;99.90;;;;;;5014837;28;20732;-70
2022/11/09 05:57:50;;;;;;;4.37;2.60;;;12.00;99.90;;;;;;5034421;28;20437;-67
2022/11/09 06:00:16;;;;;;;3.13;2.30;;;12.00;99.90;;;;;;5033477;28;20293;-67
2022/11/09 06:02:41;;;;;;;2.60;2.40;;;12.00;99.90;;;;;;5015410;28;20203;-67
2022/11/09 06:05:07;;;;;;;2.63;1.80;;;12.00;99.90;;;;;;5013143;28;20439;-68
2022/11/09 06:07:33;;;;;;;2.00;1.80;;;12.00;99.90;;;;;;5014111;28;20187;-67
2022/11/09 06:09:58;;;;;;;2.80;1.77;;;12.10;99.90;;;;;;5013380;28;20431;-67
2022/11/09 06:12:24;;;;;;;2.90;1.90;;;12.10;99.90;;;;;;5011435;28;20167;-68
2022/11/09 06:14:49;;;;;;;1.70;1.60;;;12.10;99.90;;;;;;4993879;28;20682;-67
2022/11/09 06:17:15;;;;;;;3.57;2.00;;;12.20;99.90;;;;;;4994342;28;20173;-67
2022/11/09 06:19:41;;;;;;;2.90;2.10;;;12.20;99.90;;;;;;5004748;28;20255;-67
2022/11/09 06:22:06;;;;;;;2.10;1.73;;;12.20;99.90;;;;;;5013538;28;20176;-68
2022/11/09 06:24:32;;;;;;;3.70;2.50;;;12.20;99.90;;;;;;5012820;28;20526;-68
2022/11/09 06:26:57;;;;;;;3.50;3.20;;;12.30;99.90;;;;;;5027968;28;20709;-68
2022/11/09 06:29:23;;;;;;;2.67;2.20;;;12.30;99.90;;;;;;5033042;28;20611;-68
2022/11/09 06:31:50;;;;;;;5.20;2.30;;;12.30;99.90;;;;;;5025726;28;20179;-68
2022/11/09 06:34:15;;;;;;;2.23;2.03;;;12.30;99.90;;;;;;5013581;28;20184;-68
2022/11/09 06:36:41;;;;;;;2.40;1.93;;;12.30;99.90;;;;;;5001816;28;20777;-67
2022/11/09 06:39:07;;;;;;;3.80;2.30;;;12.30;99.90;;;;;;4994188;28;20211;-67
2022/11/09 06:41:33;;;;;;;2.60;2.20;;;12.40;99.90;;;;;;4994062;28;20199;-67
2022/11/09 06:43:59;;;;;;;2.10;1.90;;;12.40;99.90;;;;;;5008644;28;20452;-69
2022/11/09 06:46:24;;;;;;;3.47;2.47;;;12.40;99.90;;;;;;5016681;28;20216;-68
2022/11/09 06:48:50;;;;;;;2.37;2.20;;;12.40;99.90;;;;;;4992485;28;20538;-68
2022/11/09 06:51:15;;;;;;;3.40;2.10;;;12.40;99.90;;;;;;4994271;28;20205;-68
2022/11/09 06:53:41;;;;;;;4.33;3.13;;;12.30;99.90;;;;;;4976461;28;20271;-68
2022/11/09 06:56:08;;;;;;;3.73;2.60;;;12.40;99.90;;;;;;4993314;28;20177;-66
2022/11/09 06:58:34;;;;;;;2.67;2.33;;;12.30;99.90;;;;;;4993954;28;20177;-67
2022/11/09 07:01:09;;;;;;;2.90;2.60;;;12.30;99.90;;;;;;4992943;28;20812;-67
2022/11/09 07:03:35;;;;;;;4.23;2.27;;;12.40;99.90;;;;;;5009453;28;20446;-67
2022/11/09 07:06:07;;;;;;;2.87;2.43;;;12.30;99.90;;;;;;5011505;28;20875;-69
2022/11/09 07:08:34;;;;;;;3.83;2.23;;;12.30;99.90;;;;;;5011308;28;20466;-67
2022/11/09 07:11:15;;;;;;;2.70;2.40;;;12.20;99.90;;;;;;5000797;28;20427;-68
2022/11/09 07:13:41;;;;;;;3.83;2.50;;;12.20;99.90;;;;;;4992437;28;20424;-69
2022/11/09 07:16:07;;;;;;;2.87;2.47;;;12.20;99.90;;;;;;4992539;28;20422;-69
2022/11/09 07:18:33;;;;;;;2.80;2.50;;;12.20;99.90;;;;;;4992965;28;20865;-68
2022/11/09 07:20:59;;;;;;;7.77;2.47;;;12.20;99.90;;;;;;5004761;28;20471;-69
2022/11/09 07:23:24;;;;;;;2.87;2.20;;;12.10;99.90;;;;;;5015758;28;20779;-70
2022/11/09 07:25:51;;;;;;;4.23;2.20;;;12.10;99.90;;;;;;5020498;28;20493;-68
2022/11/09 07:28:16;;;;;;;2.83;2.53;;;12.10;99.90;;;;;;5011891;28;20210;-68
2022/11/09 07:30:42;;;;;;;3.70;3.00;;;12.10;99.90;;;;;;5011435;28;20435;-69
2022/11/09 07:33:13;;;;;;;3.70;3.03;;;12.10;99.90;;;;;;5013392;28;20700;-68
2022/11/09 07:35:39;;;;;;;2.90;2.57;;;12.10;99.90;;;;;;5012413;28;20180;-68
2022/11/09 07:38:04;;;;;;;4.47;2.50;;;12.00;99.90;;;;;;5006634;28;20444;-68
2022/11/09 07:40:30;;;;;;;2.80;2.60;;;12.00;99.90;;;;;;4995173;28;20176;-69
2022/11/09 07:42:59;;;;;;;5.33;4.10;;;12.00;99.90;;;;;;5012257;28;20180;-69
2022/11/09 07:45:26;;;;;;;4.07;3.27;;;12.00;99.90;;;;;;5017576;28;20215;-68
2022/11/09 07:47:56;;;;;;;5.20;3.03;;;11.90;99.90;;;;;;5028722;28;20769;-70
2022/11/09 07:50:21;;;;;;;4.07;3.10;;;11.90;99.90;;;;;;5023705;28;20448;-70
2022/11/09 07:52:47;;;;;;;4.97;3.83;;;11.80;99.90;;;;;;5033552;28;20874;-68
2022/11/09 07:55:12;;;;;;;4.50;2.70;;;11.80;99.90;;;;;;5017419;28;20581;-69
2022/11/09 07:57:38;;;;;;;3.20;2.87;;;11.80;99.90;;;;;;5025966;28;20259;-70
2022/11/09 08:00:04;;;;;;;3.30;3.00;;;11.80;99.90;;;;;;5020088;28;20183;-69
2022/11/09 08:02:29;;;;;;;5.57;3.30;;;11.90;99.90;;;;;;5021357;28;20172;-70
2022/11/09 08:04:55;;;;;;;3.00;2.80;;;11.90;99.90;;;;;;5022793;28;20234;-70
2022/11/09 08:07:22;;;;;;;4.93;2.70;;;11.90;99.90;;;;;;5012018;28;20229;-70
2022/11/09 08:09:48;;;;;;;4.93;3.13;;;11.90;99.90;;;;;;5022800;28;20175;-69
2022/11/09 08:12:13;;;;;;;6.00;2.50;;;11.90;99.90;;;;;;4988667;28;20826;-69
2022/11/09 08:14:39;;;;;;;3.63;3.13;;;11.90;99.90;;;;;;5027198;28;20560;-70
2022/11/09 08:17:04;;;;;;;3.03;2.80;;;11.90;99.90;;;;;;4994166;28;20189;-70
2022/11/09 08:19:30;;;;;;;3.80;2.87;;;12.00;99.90;;;;;;4974198;28;20177;-70
2022/11/09 08:21:56;;;;;;;2.93;2.47;;;12.00;99.90;;;;;;4991559;28;20632;-69
2022/11/09 08:24:22;;;;;;;5.00;4.10;;;12.10;99.90;;;;;;4992226;28;20267;-69
2022/11/09 08:26:48;;;;;;;4.10;3.10;;;12.10;99.90;;;;;;4991571;28;20455;-69
2022/11/09 08:29:14;;;;;;;3.77;2.60;;;12.20;99.90;;;;;;4992290;28;20426;-69
2022/11/09 08:31:40;;;;;;;3.07;2.77;;;12.10;99.90;;;;;;4991765;28;20195;-70
2022/11/09 08:34:11;;;;;;;2.83;2.63;;;12.10;99.90;;;;;;5010725;28;20450;-69
2022/11/09 08:36:36;;;;;;;2.90;2.60;;;12.10;99.90;;;;;;5018286;28;20910;-69
2022/11/09 08:39:02;;;;;;;2.60;2.33;;;12.20;99.90;;;;;;5009047;28;20422;-69
2022/11/09 08:41:28;;;;;;;3.70;3.20;;;12.20;99.90;;;;;;5011589;28;20350;-69
2022/11/09 08:43:53;;;;;;;4.30;2.90;;;12.20;99.90;;;;;;5018507;28;20666;-70
2022/11/09 08:46:19;;;;;;;4.10;3.60;;;12.20;99.90;;;;;;5005788;28;20192;-69
2022/11/09 08:48:44;;;;;;;3.37;2.47;;;12.20;99.90;;;;;;5012580;28;20585;-70
2022/11/09 08:51:10;;;;;;;3.43;2.83;;;12.30;99.90;;;;;;5008555;28;20645;-69
2022/11/09 08:53:36;;;;;;;4.63;3.60;;;12.20;99.90;;;;;;5023765;28;20195;-70
2022/11/09 08:56:03;;;;;;;4.53;4.13;;;12.20;99.90;;;;;;5007037;28;20206;-69
2022/11/09 08:58:29;;;;;;;4.07;3.50;;;12.30;99.90;;;;;;5005489;28;20175;-69
2022/11/09 09:00:54;;;;;;;3.90;3.17;;;12.20;99.90;;;;;;5009981;28;20514;-70
2022/11/09 09:03:20;;;;;;;5.30;3.20;;;12.20;99.90;;;;;;5010294;28;20177;-69
2022/11/09 09:05:45;;;;;;;7.93;3.37;;;12.20;99.90;;;;;;5008435;28;20196;-70
2022/11/09 09:08:14;;;;;;;3.13;2.77;;;12.30;99.90;;;;;;5009741;28;20176;-71
2022/11/09 09:10:39;;;;;;;3.67;3.37;;;12.30;99.90;;;;;;5009382;28;20168;-70
2022/11/09 09:13:05;;;;;;;5.20;4.70;;;12.30;99.90;;;;;;4994549;28;20446;-70
2022/11/09 09:15:31;;;;;;;4.90;4.00;;;12.30;99.90;;;;;;5009813;28;20200;-69
2022/11/09 09:17:59;;;;;;;8.13;3.37;;;12.40;99.90;;;;;;5011841;28;20176;-68
2022/11/09 09:20:25;;;;;;;3.30;3.00;;;12.40;99.90;;;;;;5028843;28;20187;-69
2022/11/09 09:22:51;;;;;;;4.67;3.00;;;12.40;99.90;;;;;;5022116;28;20780;-69
2022/11/09 09:25:16;;;;;;;4.30;3.27;;;12.40;99.90;;;;;;5022500;28;20445;-69
2022/11/09 09:27:43;;;;;;;7.70;2.83;;;12.50;99.90;;;;;;5019414;28;20539;-69
2022/11/09 09:30:09;;;;;;;5.40;4.73;;;12.60;99.90;;;;;;5016466;28;20187;-70
2022/11/09 09:32:35;;;;;;;3.13;2.87;;;12.70;99.90;;;;;;5007766;28;20789;-69
2022/11/09 09:35:01;;;;;;;3.57;3.23;;;12.70;99.90;;;;;;5006270;28;20430;-69
2022/11/09 09:37:27;;;;;;;3.93;3.37;;;12.80;99.90;;;;;;5011275;28;20180;-68
2022/11/09 09:39:52;;;;;;;4.37;3.50;;;13.00;99.90;;;;;;5027023;28;20172;-70
2022/11/09 09:42:23;;;;;;;3.27;2.97;;;13.10;99.90;;;;;;5017410;28;20172;-70
2022/11/09 09:45:13;;;;;;;3.30;3.00;;;13.20;99.90;;;;;;5021984;28;20230;-71
2022/11/09 09:47:55;;;;;;;5.37;3.80;;;13.20;99.90;;;;;;5019176;28;20411;-70
2022/11/09 09:50:28;;;;;;;5.40;3.00;;;13.20;99.90;;;;;;5003195;28;20436;-70
2022/11/09 09:53:06;;;;;;;3.93;3.03;;;13.10;99.90;;;;;;5000982;28;20835;-69
2022/11/09 09:55:40;;;;;;;5.40;3.00;;;13.00;99.90;;;;;;5012327;28;20447;-69
2022/11/09 09:58:13;;;;;;;4.23;3.33;;;12.90;99.90;;;;;;5020220;28;20407;-70
2022/11/09 10:00:40;;;;;;;4.60;3.27;;;12.90;99.90;;;;;;5027270;28;20458;-69
2022/11/09 10:03:15;;;;;;;3.60;3.27;;;12.90;99.90;;;;;;5024812;28;20900;-70
2022/11/09 10:06:22;;;;;;;3.47;3.20;;;12.90;99.90;;;;;;5018386;28;20486;-70
2022/11/09 10:09:06;;;;;;;4.20;3.23;;;12.80;99.90;;;;;;4992427;28;20411;-69
2022/11/09 10:11:40;;;;;;;6.70;3.10;;;12.90;99.90;;;;;;5011544;28;20419;-70
2022/11/09 10:14:27;;;;;;;3.77;3.20;;;12.90;99.90;;;;;;5025618;28;20522;-70
2022/11/09 10:17:06;;;;;;;2.90;2.67;;;13.00;99.90;;;;;;5024765;28;20474;-72
2022/11/09 10:19:53;;;;;;;3.57;3.23;;;13.00;99.90;;;;;;5019409;28;20462;-70
2022/11/09 10:22:28;;;;;;;3.53;3.13;;;13.10;99.90;;;;;;5010468;28;20600;-69
2022/11/09 10:25:05;;;;;;;4.83;3.30;;;13.10;99.90;;;;;;5005774;28;20470;-71
2022/11/09 10:27:36;;;;;;;3.77;3.13;;;13.10;99.90;;;;;;4999251;28;20459;-70
2022/11/09 10:30:16;;;;;;;5.53;3.20;;;13.10;99.90;;;;;;5008607;28;20620;-70
2022/11/09 10:32:45;;;;;;;4.27;2.73;;;13.10;99.90;;;;;;5020598;28;20410;-69
2022/11/09 10:35:28;;;;;;;4.13;3.03;;;13.10;99.90;;;;;;5021713;28;20500;-70
2022/11/09 10:37:53;;;;;;;4.63;2.80;;;13.10;99.90;;;;;;5029822;28;20413;-70
2022/11/09 10:40:39;;;;;;;4.40;3.60;;;13.10;99.90;;;;;;5017451;28;20403;-70
2022/11/09 10:43:13;;;;;;;3.53;2.77;;;13.10;99.90;;;;;;5028794;28;20217;-70
2022/11/09 10:45:41;;;;;;;4.10;3.17;;;13.30;99.90;;;;;;5017651;28;20817;-69
2022/11/09 10:48:08;;;;;;;3.80;3.40;;;13.50;99.90;;;;;;5025259;28;20608;-70
2022/11/09 10:50:36;;;;;;;3.77;2.60;;;13.60;99.90;;;;;;5031686;28;20409;-70
2022/11/09 10:53:16;;;;;;;3.47;3.10;;;13.70;99.90;;;;;;5022899;28;20487;-70
2022/11/09 10:56:07;;;;;;;5.10;3.70;;;13.80;99.90;;;;;;5022916;28;20422;-69
2022/11/09 10:58:46;;;;;;;4.43;3.20;;;13.90;99.90;;;;;;5006292;28;20415;-69
2022/11/09 11:01:14;;;;;;;3.03;2.53;;;13.90;99.90;;;;;;5021587;28;20848;-70
2022/11/09 11:03:41;;;;;;;4.13;2.83;;;13.90;99.90;;;;;;5028354;28;20445;-71
2022/11/09 11:06:22;;;;;;;3.20;2.63;;;13.90;99.90;;;;;;5016270;28;20447;-70
2022/11/09 11:08:56;;;;;;;3.47;2.70;;;14.00;99.90;;;;;;5024989;28;20414;-70
2022/11/09 11:11:29;;;;;;;3.87;2.90;;;13.90;99.90;;;;;;5015103;28;20892;-70
2022/11/09 11:14:08;;;;;;;2.63;2.40;;;13.90;99.90;;;;;;5021056;28;20425;-70
2022/11/09 11:16:36;;;;;;;3.13;2.83;;;13.90;99.90;;;;;;5008508;28;20501;-70
2022/11/09 11:19:03;;;;;;;2.90;2.60;;;14.00;99.90;;;;;;5022831;28;20407;-68
2022/11/09 11:21:29;;;;;;;6.00;3.40;;;14.10;99.90;;;;;;5012500;28;20502;-71
2022/11/09 11:24:12;;;;;;;2.93;2.60;;;14.30;99.90;;;;;;5014354;28;20442;-70
2022/11/09 11:27:01;;;;;;;2.60;2.40;;;14.40;99.90;;;;;;5006209;28;20438;-70
2022/11/09 11:29:32;;;;;;;3.10;2.67;;;14.40;99.90;;;;;;5019098;28;20431;-70
2022/11/09 11:31:58;;;;;;;3.40;3.10;;;14.40;99.90;;;;;;5028828;28;20487;-70
2022/11/09 11:34:23;;;;;;;2.60;2.40;;;14.40;99.90;;;;;;5017260;28;20525;-70
2022/11/09 11:37:14;;;;;;;3.10;2.40;;;14.40;99.90;;;;;;5030353;28;20164;-70
2022/11/09 11:39:49;;;;;;;2.80;2.13;;;14.50;99.90;;;;;;5016957;28;20545;-70
2022/11/09 11:42:41;;;;;;;3.70;2.57;;;14.60;99.90;;;;;;5000380;28;20408;-70
2022/11/09 11:45:07;;;;;;;2.70;2.40;;;14.80;99.90;;;;;;5021102;28;20432;-70
2022/11/09 11:47:47;;;;;;;3.93;2.87;;;14.90;99.90;;;;;;5026779;28;20765;-70
2022/11/09 11:50:33;;;;;;;5.57;2.80;;;15.10;99.90;;;;;;5014038;28;20493;-71
2022/11/09 11:53:11;;;;;;;3.00;2.70;;;15.00;99.90;;;;;;5008664;28;20940;-67
2022/11/09 11:56:04;;;;;;;5.23;2.77;;;15.00;99.90;;;;;;5021300;28;20545;-67
2022/11/09 11:58:43;;;;;;;2.33;2.13;;;15.10;99.90;;;;;;5008288;28;20459;-67
2022/11/09 12:01:32;;;;;;;3.10;2.40;;;15.30;99.90;;;;;;5023010;28;20427;-67
2022/11/09 12:04:36;;;;;;;2.50;2.30;;;15.40;99.90;;;;;;5011395;28;20478;-68
2022/11/09 12:07:28;;;;;;;2.40;2.20;;;15.40;99.90;;;;;;5006518;28;20479;-68
2022/11/09 12:10:20;;;;;;;2.73;2.30;;;15.40;99.90;;;;;;5012311;28;20404;-68
2022/11/09 12:13:23;;;;;;;4.47;2.37;;;15.40;99.90;;;;;;5008253;28;20449;-67
2022/11/09 12:16:03;;;;;;;2.50;2.20;;;15.50;99.90;;;;;;5017971;28;20805;-67
2022/11/09 12:19:02;;;;;;;4.00;3.60;;;15.60;99.90;;;;;;5028261;28;20416;-70
2022/11/09 12:21:57;;;;;;;5.90;2.20;;;15.60;99.90;;;;;;5012776;28;20428;-68
2022/11/09 12:24:34;;;;;;;2.30;1.93;;;15.70;99.90;;;;;;4985344;28;20443;-68
2022/11/09 12:27:35;;;;;;;7.33;2.20;;;15.60;99.90;;;;;;5022700;28;20459;-67
2022/11/09 12:30:19;;;;;;;2.30;1.80;;;15.60;99.90;;;;;;5028025;28;20410;-67
2022/11/09 12:33:02;;;;;;;2.00;1.77;;;15.40;99.90;;;;;;5004895;28;20405;-69
2022/11/09 12:35:28;;;;;;;2.70;1.80;;;15.40;99.90;;;;;;5005931;28;20449;-68
2022/11/09 12:38:14;;;;;;;2.57;2.37;;;15.40;99.90;;;;;;5008592;28;20464;-68
2022/11/09 12:40:47;;;;;;;2.30;2.10;;;15.50;99.90;;;;;;4995293;28;20217;-68
2022/11/09 12:43:33;;;;;;;2.20;1.47;;;15.50;99.90;;;;;;5000988;28;20432;-67
2022/11/09 12:46:00;;;;;;;3.43;3.13;;;15.40;99.90;;;;;;4997383;28;20493;-67
2022/11/09 12:48:31;;;;;;;3.70;1.80;;;15.60;99.90;;;;;;5024955;28;20412;-68
2022/11/09 12:50:59;;;;;;;3.97;2.40;;;15.40;99.90;;;;;;5010074;28;20868;-68
2022/11/09 12:53:29;;;;;;;2.70;1.87;;;15.50;99.90;;;;;;5020529;28;20409;-67
2022/11/09 12:56:06;;;;;;;1.93;1.83;;;15.50;99.90;;;;;;5029312;28;20831;-67
2022/11/09 12:58:34;;;;;;;2.27;1.90;;;15.50;99.90;;;;;;5030986;28;20910;-68
2022/11/09 13:01:03;;;;;;;3.90;2.67;;;15.60;99.90;;;;;;5025010;28;20492;-67
2022/11/09 13:03:33;;;;;;;2.43;2.10;;;15.40;99.90;;;;;;5011374;28;20934;-67
2022/11/09 13:06:15;;;;;;;2.40;1.53;;;15.40;99.90;;;;;;5016095;28;20467;-66